createdAt,value
2022-08-05T00:01:28.517Z,9.20
2022-08-05T00:03:57.073Z,12.38
2022-08-05T00:06:30.717Z,8.82
2022-08-05T00:09:00.499Z,8.43
2022-08-05T00:11:30.498Z,10.00
2022-08-05T00:14:02.451Z,6.22
2022-08-05T00:16:52.885Z,10.80
2022-08-05T00:19:22.368Z,11.45
2022-08-05T00:21:49.552Z,12.23
2022-08-05T00:24:19.360Z,8.60
2022-08-05T00:26:52.088Z,9.90
2022-08-05T00:29:22.640Z,7.75
2022-08-05T00:32:10.295Z,9.05
2022-08-05T00:34:56.204Z,10.05
2022-08-05T00:37:27.303Z,11.52
2022-08-05T00:40:13.620Z,10.98
2022-08-05T00:42:48.324Z,14.65
2022-08-05T00:45:15.989Z,12.20
2022-08-05T00:47:56.553Z,12.52
2022-08-05T00:55:20.136Z,11.13
2022-08-05T00:57:58.710Z,12.85
2022-08-05T01:30:17.837Z,12.43
2022-08-05T01:32:46.292Z,11.43
2022-08-05T01:35:51.941Z,13.32
2022-08-05T01:38:04.430Z,11.80
2022-08-05T01:40:31.064Z,12.13
2022-08-05T01:42:58.050Z,10.88
2022-08-05T01:45:25.317Z,11.07
2022-08-05T01:47:54.564Z,11.48
2022-08-05T01:50:30.234Z,10.00
2022-08-05T01:52:59.920Z,8.73
2022-08-05T01:55:26.725Z,11.20
2022-08-05T01:58:12.558Z,14.73
2022-08-05T02:00:43.163Z,11.05
2022-08-05T02:03:29.238Z,15.27
2022-08-05T02:08:30.830Z,9.73
2022-08-05T02:11:02.414Z,9.23
2022-08-05T02:13:53.529Z,11.18
2022-08-05T02:16:30.698Z,10.65
2022-08-05T02:19:34.360Z,15.20
2022-08-05T02:22:26.381Z,10.95
2022-08-05T02:25:00.744Z,15.70
2022-08-05T02:27:29.919Z,8.63
2022-08-05T02:30:14.685Z,12.07
2022-08-05T02:32:42.035Z,10.90
2022-08-05T02:35:14.287Z,14.90
2022-08-05T02:37:42.713Z,11.40
2022-08-05T02:40:16.068Z,15.48
2022-08-05T02:42:42.835Z,12.00
2022-08-05T02:45:19.689Z,10.80
2022-08-05T02:48:07.072Z,8.45
2022-08-05T02:50:38.409Z,10.40
2022-08-05T02:53:11.771Z,10.75
2022-08-05T02:55:53.717Z,11.10
2022-08-05T02:58:21.979Z,9.85
2022-08-05T03:00:48.802Z,9.63
2022-08-05T03:03:19.740Z,7.55
2022-08-05T03:06:54.425Z,9.50
2022-08-05T03:08:37.967Z,13.75
2022-08-05T03:11:55.184Z,12.43
2022-08-05T03:14:08.159Z,12.60
2022-08-05T03:16:35.685Z,11.38
2022-08-05T03:19:06.501Z,12.15
2022-08-05T03:21:41.658Z,15.43
2022-08-05T03:24:15.902Z,12.05
2022-08-05T03:26:42.557Z,12.10
2022-08-05T03:29:12.463Z,8.07
2022-08-05T03:31:57.107Z,14.85
2022-08-05T03:34:29.402Z,10.48
2022-08-05T03:36:56.036Z,11.30
2022-08-05T03:39:27.286Z,11.93
2022-08-05T03:41:56.123Z,13.27
2022-08-05T03:44:24.637Z,11.73
2022-08-05T03:46:51.590Z,13.98
2022-08-05T03:49:18.263Z,17.48
2022-08-05T03:52:50.307Z,10.80
2022-08-05T03:56:01.058Z,16.10
2022-08-05T03:57:42.584Z,13.20
2022-08-05T04:00:12.197Z,11.30
2022-08-05T04:02:58.120Z,11.90
2022-08-05T04:05:34.896Z,10.57
2022-08-05T04:08:14.690Z,10.25
2022-08-05T04:10:54.017Z,9.35
2022-08-05T04:13:21.231Z,8.68
2022-08-05T04:15:52.777Z,9.18
2022-08-05T04:18:31.266Z,8.45
2022-08-05T04:20:58.384Z,13.23
2022-08-05T04:24:06.393Z,9.00
2022-08-05T04:26:13.782Z,9.02
2022-08-05T04:28:51.148Z,8.68
2022-08-05T04:31:19.136Z,10.40
2022-08-05T04:34:19.302Z,10.13
2022-08-05T04:36:45.692Z,7.85
2022-08-05T04:39:16.927Z,9.27
2022-08-05T04:41:44.879Z,9.05
2022-08-05T04:44:12.622Z,9.95
2022-08-05T04:46:39.298Z,8.13
2022-08-05T04:49:12.182Z,7.68
2022-08-05T04:51:42.907Z,6.88
2022-08-05T04:54:10.154Z,9.85
2022-08-05T04:56:38.873Z,10.30
2022-08-05T04:59:22.060Z,8.82
2022-08-05T05:02:07.331Z,6.45
2022-08-05T05:04:38.428Z,6.38
2022-08-05T05:07:11.041Z,8.43
2022-08-05T05:09:38.017Z,8.48
2022-08-05T05:12:05.300Z,9.02
2022-08-05T05:14:33.281Z,8.68
2022-08-05T05:17:03.564Z,7.40
2022-08-05T05:19:36.992Z,6.78
2022-08-05T05:22:24.646Z,5.07
2022-08-05T05:24:58.354Z,6.15
2022-08-05T05:27:44.524Z,7.55
2022-08-05T05:30:29.830Z,8.68
2022-08-05T05:33:00.840Z,8.20
2022-08-05T05:35:34.314Z,10.18
2022-08-05T05:38:05.635Z,13.57
2022-08-05T05:40:35.785Z,7.65
2022-08-05T05:43:03.028Z,9.30
2022-08-05T05:45:29.751Z,8.32
2022-08-05T05:48:07.028Z,7.53
2022-08-05T05:50:35.506Z,5.80
2022-08-05T05:53:21.171Z,6.80
2022-08-05T05:55:52.219Z,8.45
2022-08-05T05:58:31.441Z,6.65
2022-08-05T06:01:12.486Z,6.78
2022-08-05T06:04:01.226Z,9.38
2022-08-05T06:06:30.942Z,5.43
2022-08-05T06:08:58.616Z,7.13
2022-08-05T06:11:26.001Z,5.80
2022-08-05T06:13:55.443Z,5.35
2022-08-05T06:16:29.755Z,5.78
2022-08-05T06:19:00.796Z,6.38
2022-08-05T06:21:36.568Z,5.05
2022-08-05T06:24:07.733Z,6.88
2022-08-05T06:26:38.324Z,9.40
2022-08-05T06:29:06.901Z,5.20
2022-08-05T06:31:51.568Z,5.53
2022-08-05T06:34:20.117Z,4.75
2022-08-05T06:36:58.030Z,5.68
2022-08-05T06:39:27.203Z,8.48
2022-08-05T06:41:57.394Z,6.00
2022-08-05T06:44:26.049Z,5.30
2022-08-05T06:46:54.476Z,5.75
2022-08-05T06:50:01.200Z,5.65
2022-08-05T06:52:08.099Z,7.10
2022-08-05T06:54:54.934Z,2.45
2022-08-05T06:57:57.900Z,5.50
2022-08-05T07:00:09.750Z,5.72
2022-08-05T07:02:46.411Z,5.15
2022-08-05T07:05:14.202Z,2.88
2022-08-05T07:07:45.462Z,5.72
2022-08-05T07:10:14.954Z,3.80
2022-08-05T07:12:43.293Z,8.70
2022-08-05T07:15:34.729Z,6.68
2022-08-05T07:18:09.257Z,4.03
2022-08-05T07:20:38.863Z,2.63
2022-08-05T07:23:10.031Z,3.30
2022-08-05T07:25:56.179Z,2.30
2022-08-05T07:28:23.624Z,3.80
2022-08-05T07:30:54.002Z,3.47
2022-08-05T07:33:35.214Z,3.33
2022-08-05T07:36:20.869Z,2.63
2022-08-05T07:38:48.987Z,3.85
2022-08-05T07:42:14.242Z,2.88
2022-08-05T07:44:14.033Z,2.80
2022-08-05T07:46:41.267Z,4.40
2022-08-05T07:49:14.834Z,3.30
2022-08-05T07:51:53.465Z,2.33
2022-08-05T07:54:26.521Z,3.35
2022-08-05T07:57:14.674Z,2.30
2022-08-05T07:59:41.223Z,2.40
2022-08-05T08:02:16.620Z,4.60
2022-08-05T08:04:48.429Z,2.53
2022-08-05T08:07:15.827Z,5.50
2022-08-05T08:09:43.025Z,2.42
2022-08-05T08:12:29.646Z,2.00
2022-08-05T08:14:56.940Z,4.25
2022-08-05T08:17:30.276Z,1.70
2022-08-05T08:20:22.899Z,3.60
2022-08-05T08:22:44.167Z,4.07
2022-08-05T08:25:16.303Z,2.33
2022-08-05T08:27:47.862Z,2.85
2022-08-05T08:30:29.744Z,2.40
2022-08-05T08:33:02.720Z,4.60
2022-08-05T08:35:52.310Z,2.72
2022-08-05T08:38:35.631Z,2.67
2022-08-05T08:41:08.865Z,2.83
2022-08-05T08:45:16.987Z,2.38
2022-08-05T08:49:07.900Z,4.53
2022-08-05T08:52:03.854Z,2.13
2022-08-05T08:54:27.407Z,1.75
2022-08-05T08:56:54.270Z,1.95
2022-08-05T09:01:57.402Z,1.35
2022-08-05T09:04:30.549Z,0.90
2022-08-05T09:06:57.801Z,4.13
2022-08-05T09:09:25.383Z,1.35
2022-08-05T09:11:55.381Z,1.30
2022-08-05T09:14:58.425Z,2.63
2022-08-05T09:17:42.810Z,1.88
2022-08-05T09:20:08.543Z,4.82
2022-08-05T09:23:09.278Z,2.60
2022-08-05T09:26:02.329Z,4.15
2022-08-05T09:28:32.381Z,1.60
2022-08-05T09:31:22.753Z,3.50
2022-08-05T09:33:54.896Z,4.30
2022-08-05T09:36:27.592Z,2.38
2022-08-05T09:39:02.501Z,4.72
2022-08-05T09:41:32.889Z,2.78
2022-08-05T09:44:05.127Z,2.65
2022-08-05T09:46:33.837Z,3.78
2022-08-05T09:49:07.722Z,2.80
2022-08-05T09:51:48.967Z,2.88
2022-08-05T09:54:16.440Z,2.08
2022-08-05T09:56:55.605Z,4.72
2022-08-05T09:59:24.500Z,2.83
2022-08-05T10:01:58.147Z,1.95
2022-08-05T10:04:35.774Z,2.53
2022-08-05T10:07:20.450Z,3.85
2022-08-05T10:10:00.310Z,4.80
2022-08-05T10:12:55.469Z,3.90
2022-08-05T10:15:34.418Z,2.88
2022-08-05T10:18:07.147Z,4.65
2022-08-05T10:20:35.009Z,3.65
2022-08-05T10:23:02.193Z,3.63
2022-08-05T10:25:30.207Z,3.05
2022-08-05T10:28:13.878Z,4.72
2022-08-05T10:32:48.937Z,5.05
2022-08-05T10:33:34.359Z,4.10
2022-08-05T10:36:03.637Z,1.20
2022-08-05T10:38:33.080Z,2.60
2022-08-05T10:41:46.806Z,2.47
2022-08-05T10:44:17.196Z,3.03
2022-08-05T10:46:51.075Z,1.75
2022-08-05T10:49:27.100Z,2.83
2022-08-05T10:51:59.775Z,3.80
2022-08-05T10:55:02.829Z,4.10
2022-08-05T10:57:33.876Z,3.55
2022-08-05T11:00:20.099Z,3.03
2022-08-05T11:03:24.858Z,2.90
2022-08-05T11:06:15.363Z,2.50
2022-08-05T11:09:17.369Z,2.28
2022-08-05T11:11:53.646Z,2.70
2022-08-05T11:18:00.484Z,2.20
2022-08-05T11:20:32.807Z,2.00
2022-08-05T11:23:05.886Z,1.85
2022-08-05T11:26:06.035Z,1.83
2022-08-05T11:28:23.280Z,1.75
2022-08-05T11:31:10.155Z,1.13
2022-08-05T11:33:46.527Z,1.08
2022-08-05T11:36:16.590Z,2.53
2022-08-05T11:39:01.666Z,2.15
2022-08-05T11:41:56.506Z,1.02
2022-08-05T11:44:40.940Z,2.42
2022-08-05T11:47:14.009Z,0.90
2022-08-05T11:49:49.723Z,1.45
2022-08-05T11:52:29.310Z,2.78
2022-08-05T11:54:57.559Z,1.25
2022-08-05T11:58:08.536Z,1.45
2022-08-05T12:00:30.220Z,1.20
2022-08-05T12:02:57.330Z,0.95
2022-08-05T12:05:36.317Z,2.50
2022-08-05T12:08:11.651Z,3.22
2022-08-05T12:10:46.311Z,1.23
2022-08-05T12:13:28.230Z,4.18
2022-08-05T12:16:04.843Z,1.60
2022-08-05T12:18:41.076Z,0.63
2022-08-05T12:21:17.554Z,1.70
2022-08-05T12:24:04.496Z,1.33
2022-08-05T12:26:38.913Z,2.25
2022-08-05T12:29:11.878Z,0.50
2022-08-05T12:32:01.717Z,2.75
2022-08-05T12:34:33.656Z,1.38
2022-08-05T12:37:06.456Z,2.55
2022-08-05T12:39:37.302Z,1.35
2022-08-05T12:42:18.367Z,2.67
2022-08-05T12:44:47.627Z,2.28
2022-08-05T12:47:17.113Z,1.35
2022-08-05T12:50:04.853Z,2.13
2022-08-05T12:52:39.332Z,3.45
2022-08-05T12:55:26.306Z,2.00
2022-08-05T12:58:50.216Z,1.92
2022-08-05T13:02:00.179Z,1.92
2022-08-05T13:03:32.435Z,1.42
2022-08-05T13:06:00.838Z,3.10
2022-08-05T13:08:29.866Z,3.95
2022-08-05T13:11:00.734Z,1.13
2022-08-05T13:14:06.170Z,3.72
2022-08-05T13:18:58.682Z,3.45
2022-08-05T13:21:28.432Z,1.23
2022-08-05T13:24:08.733Z,2.10
2022-08-05T13:26:35.982Z,2.70
2022-08-05T13:29:02.679Z,4.30
2022-08-05T13:32:02.863Z,2.28
2022-08-05T13:34:24.912Z,4.13
2022-08-05T13:36:53.378Z,2.50
2022-08-05T13:39:24.483Z,4.43
2022-08-05T13:42:07.230Z,2.15
2022-08-05T13:44:34.728Z,2.10
2022-08-05T13:47:08.566Z,4.85
2022-08-05T13:49:36.007Z,1.58
2022-08-05T13:52:19.194Z,3.75
2022-08-05T13:54:56.233Z,1.10
2022-08-05T13:57:23.031Z,1.25
2022-08-05T13:59:57.439Z,3.05
2022-08-05T14:04:56.756Z,2.63
2022-08-05T14:08:00.162Z,4.30
2022-08-05T14:10:28.434Z,2.95
2022-08-05T14:12:57.099Z,3.40
2022-08-05T14:16:06.193Z,1.70
2022-08-05T14:18:15.074Z,4.40
2022-08-05T14:20:47.074Z,8.38
2022-08-05T14:23:18.920Z,3.65
2022-08-05T14:25:53.952Z,3.25
2022-08-05T14:30:54.597Z,2.15
2022-08-05T14:33:22.647Z,3.35
2022-08-05T14:35:51.883Z,2.28
2022-08-05T14:38:31.662Z,1.58
2022-08-05T14:41:00.253Z,2.10
2022-08-05T14:44:02.271Z,3.13
2022-08-05T14:46:13.628Z,5.40
2022-08-05T14:48:41.378Z,4.22
2022-08-05T14:51:15.369Z,2.58
2022-08-05T14:53:44.605Z,2.97
2022-08-05T14:56:13.454Z,2.75
2022-08-05T14:58:47.846Z,3.10
2022-08-05T15:01:24.489Z,2.53
2022-08-05T15:04:07.140Z,2.90
2022-08-05T15:06:34.210Z,2.72
2022-08-05T15:09:03.603Z,4.55
2022-08-05T15:11:51.828Z,4.55
2022-08-05T15:14:34.980Z,3.78
2022-08-05T15:17:09.948Z,3.90
2022-08-05T15:23:16.223Z,2.78
2022-08-05T15:25:51.966Z,2.53
2022-08-05T15:28:19.775Z,3.45
2022-08-05T15:30:53.297Z,4.72
2022-08-05T15:36:16.690Z,8.60
2022-08-05T15:38:44.125Z,3.38
2022-08-05T15:41:21.194Z,5.68
2022-08-05T15:43:50.402Z,4.72
2022-08-05T15:46:18.239Z,5.78
2022-08-05T15:48:52.729Z,6.90
2022-08-05T15:52:13.486Z,6.28
2022-08-05T15:54:15.270Z,2.90
2022-08-05T15:59:10.431Z,7.40
2022-08-05T16:01:53.294Z,5.60
2022-08-05T16:04:25.777Z,7.28
2022-08-05T16:06:53.631Z,3.85
2022-08-05T16:09:22.555Z,4.68
2022-08-05T16:11:52.796Z,3.35
2022-08-05T16:14:19.967Z,3.78
2022-08-05T16:16:46.932Z,8.40
2022-08-05T16:19:25.627Z,3.03
2022-08-05T16:22:03.104Z,4.20
2022-08-05T16:24:41.279Z,6.10
2022-08-05T16:27:18.158Z,6.97
2022-08-05T16:29:50.413Z,4.68
2022-08-05T16:32:23.182Z,8.07
2022-08-05T16:34:55.533Z,5.80
2022-08-05T16:38:15.435Z,5.22
2022-08-05T16:40:20.207Z,7.50
2022-08-05T16:42:53.495Z,5.28
2022-08-05T16:46:07.691Z,2.63
2022-08-05T16:48:06.857Z,5.38
2022-08-05T16:50:36.940Z,7.22
2022-08-05T16:53:12.634Z,3.22
2022-08-05T16:55:50.076Z,3.83
2022-08-05T16:58:19.694Z,6.72
2022-08-05T17:00:48.180Z,2.80
2022-08-05T17:03:20.427Z,5.47
2022-08-05T17:05:53.195Z,4.28
2022-08-05T17:08:36.001Z,4.28
2022-08-05T17:11:09.047Z,5.88
2022-08-05T17:13:43.346Z,3.53
2022-08-05T17:16:30.299Z,4.10
2022-08-05T17:18:59.166Z,2.90
2022-08-05T17:21:25.878Z,5.38
2022-08-05T17:24:28.211Z,3.13
2022-08-05T17:26:56.011Z,5.05
2022-08-05T17:29:33.608Z,4.18
2022-08-05T17:32:11.502Z,2.70
2022-08-05T17:34:43.676Z,6.45
2022-08-05T17:37:41.051Z,5.90
2022-08-05T17:39:57.521Z,5.15
2022-08-05T17:42:32.072Z,4.53
2022-08-05T17:45:09.945Z,6.82
2022-08-05T17:47:47.005Z,6.65
2022-08-05T17:50:35.216Z,3.95
2022-08-05T17:53:04.605Z,3.50
2022-08-05T17:55:38.311Z,4.70
2022-08-05T17:58:12.568Z,6.57
2022-08-05T18:00:45.131Z,6.03
2022-08-05T18:06:02.552Z,3.63
2022-08-05T18:08:32.295Z,6.38
2022-08-05T18:13:28.448Z,7.68
2022-08-05T18:16:04.014Z,3.35
2022-08-05T18:18:31.434Z,4.22
2022-08-05T18:21:13.298Z,4.00
2022-08-05T18:23:48.414Z,7.50
2022-08-05T18:26:18.169Z,7.53
2022-08-05T18:28:46.427Z,3.53
2022-08-05T18:31:13.309Z,5.68
2022-08-05T18:33:47.108Z,4.63
2022-08-05T18:36:16.912Z,4.28
2022-08-05T18:41:57.046Z,9.48
2022-08-05T18:44:05.590Z,3.78
2022-08-05T18:46:33.502Z,3.20
2022-08-05T18:49:00.406Z,5.15
2022-08-05T18:52:06.916Z,8.18
2022-08-05T18:54:16.824Z,3.85
2022-08-05T18:56:51.047Z,5.45
2022-08-05T18:59:43.960Z,4.10
2022-08-05T19:02:26.970Z,2.65
2022-08-05T19:05:01.652Z,6.38
2022-08-05T19:07:46.363Z,5.20
2022-08-05T19:10:14.698Z,4.15
2022-08-05T19:12:41.575Z,5.20
2022-08-05T19:15:25.213Z,4.38
2022-08-05T19:17:59.494Z,5.60
2022-08-05T19:20:36.763Z,5.60
2022-08-05T19:23:07.754Z,4.95
2022-08-05T19:25:43.397Z,5.32
2022-08-05T19:28:10.452Z,10.50
2022-08-05T19:30:37.238Z,4.15
2022-08-05T19:33:04.390Z,10.95
2022-08-05T19:35:57.498Z,4.93
2022-08-05T19:38:24.039Z,7.68
2022-08-05T19:40:53.445Z,5.55
2022-08-05T19:44:04.004Z,5.22
2022-08-05T19:46:06.849Z,6.28
2022-08-05T19:48:53.649Z,5.47
2022-08-05T19:51:59.755Z,9.25
2022-08-05T19:54:21.975Z,4.32
2022-08-05T19:56:57.671Z,2.65
2022-08-05T19:59:54.669Z,10.15
2022-08-05T20:02:11.131Z,9.07
2022-08-05T20:08:06.119Z,5.00
2022-08-05T20:10:43.199Z,5.88
2022-08-05T20:13:17.265Z,5.05
2022-08-05T20:15:52.277Z,3.90
2022-08-05T20:18:33.552Z,4.93
2022-08-05T20:21:04.777Z,4.88
2022-08-05T20:23:40.502Z,13.00
2022-08-05T20:26:19.657Z,6.88
2022-08-05T20:28:49.930Z,6.05
2022-08-05T20:31:17.634Z,5.63
2022-08-05T20:33:48.900Z,9.70
2022-08-05T20:36:17.988Z,4.72
2022-08-05T20:38:53.422Z,9.00
2022-08-05T20:44:00.374Z,7.43
2022-08-05T20:46:32.945Z,4.25
2022-08-05T20:48:59.633Z,8.50
2022-08-05T20:51:26.359Z,8.65
2022-08-05T20:53:56.248Z,7.10
2022-08-05T20:58:59.929Z,8.02
2022-08-05T21:01:41.313Z,5.07
2022-08-05T21:04:10.317Z,5.45
2022-08-05T21:06:37.981Z,5.05
2022-08-05T21:09:12.187Z,3.33
2022-08-05T21:12:07.206Z,5.10
2022-08-05T21:14:34.592Z,6.43
2022-08-05T21:17:01.601Z,5.57
2022-08-05T21:19:29.794Z,3.88
2022-08-05T21:22:14.708Z,8.68
2022-08-05T21:24:44.532Z,5.25
2022-08-05T21:27:15.928Z,4.18
2022-08-05T21:29:43.408Z,4.80
2022-08-05T21:32:26.722Z,9.98
2022-08-05T21:35:17.685Z,4.63
2022-08-05T21:37:47.627Z,8.85
2022-08-05T21:40:20.334Z,4.90
2022-08-05T21:42:47.409Z,7.30
2022-08-05T21:45:14.426Z,6.78
2022-08-05T21:47:56.077Z,5.50
2022-08-05T21:50:25.095Z,5.22
2022-08-05T21:52:51.809Z,6.18
2022-08-05T21:55:19.993Z,4.43
2022-08-05T21:58:05.933Z,6.85
2022-08-05T22:00:32.796Z,7.32
2022-08-05T22:02:59.590Z,4.68
2022-08-05T22:05:27.339Z,7.25
2022-08-05T22:07:59.046Z,4.63
2022-08-05T22:10:28.821Z,7.00
2022-08-05T22:12:57.134Z,4.63
2022-08-05T22:16:02.431Z,4.00
2022-08-05T22:18:11.449Z,8.85
2022-08-05T22:20:38.978Z,5.32
2022-08-05T22:23:15.880Z,4.53
2022-08-05T22:26:10.169Z,6.45
2022-08-05T22:28:30.599Z,4.57
2022-08-05T22:30:58.575Z,4.68
2022-08-05T22:33:57.456Z,4.07
2022-08-05T22:36:15.274Z,7.47
2022-08-05T22:38:43.823Z,5.05
2022-08-05T22:41:15.116Z,5.00
2022-08-05T22:43:53.338Z,4.10
2022-08-05T22:46:23.205Z,4.85
2022-08-05T22:48:50.668Z,6.63
